sensor_id;sensor_type;location;lat;lon;timestamp;P1;durP1;ratioP1;P2;durP2;ratioP2
16963;SDS011;8598;50.508;10.436;2023-05-20T00:01:50;5.93;;;4.27;;
16963;SDS011;8598;50.508;10.436;2023-05-20T00:04:17;5.27;;;3.77;;
16963;SDS011;8598;50.508;10.436;2023-05-20T00:06:43;5.77;;;4.40;;
16963;SDS011;8598;50.508;10.436;2023-05-20T00:09:10;5.90;;;4.53;;
16963;SDS011;8598;50.508;10.436;2023-05-20T00:11:37;5.07;;;3.93;;
16963;SDS011;8598;50.508;10.436;2023-05-20T00:14:03;5.23;;;3.77;;
16963;SDS011;8598;50.508;10.436;2023-05-20T00:16:31;5.23;;;3.70;;
16963;SDS011;8598;50.508;10.436;2023-05-20T00:18:58;9.20;;;4.50;;
16963;SDS011;8598;50.508;10.436;2023-05-20T00:21:25;5.73;;;4.27;;
16963;SDS011;8598;50.508;10.436;2023-05-20T00:23:51;4.27;;;3.80;;
16963;SDS011;8598;50.508;10.436;2023-05-20T00:26:18;5.73;;;4.00;;
16963;SDS011;8598;50.508;10.436;2023-05-20T00:28:45;4.93;;;4.30;;
16963;SDS011;8598;50.508;10.436;2023-05-20T00:31:11;5.30;;;4.43;;
16963;SDS011;8598;50.508;10.436;2023-05-20T00:33:39;5.00;;;4.20;;
16963;SDS011;8598;50.508;10.436;2023-05-20T00:36:06;5.73;;;4.13;;
16963;SDS011;8598;50.508;10.436;2023-05-20T00:38:33;5.27;;;4.47;;
16963;SDS011;8598;50.508;10.436;2023-05-20T00:41:00;4.90;;;3.57;;
16963;SDS011;8598;50.508;10.436;2023-05-20T00:43:26;4.83;;;3.73;;
16963;SDS011;8598;50.508;10.436;2023-05-20T00:45:53;6.83;;;4.47;;
16963;SDS011;8598;50.508;10.436;2023-05-20T00:48:20;5.50;;;4.10;;
16963;SDS011;8598;50.508;10.436;2023-05-20T00:50:48;5.23;;;4.23;;
16963;SDS011;8598;50.508;10.436;2023-05-20T00:53:16;8.63;;;4.10;;
16963;SDS011;8598;50.508;10.436;2023-05-20T00:55:43;7.43;;;4.53;;
16963;SDS011;8598;50.508;10.436;2023-05-20T00:58:10;5.33;;;4.13;;
16963;SDS011;8598;50.508;10.436;2023-05-20T01:00:37;7.17;;;4.13;;
16963;SDS011;8598;50.508;10.436;2023-05-20T01:03:04;5.07;;;4.30;;
16963;SDS011;8598;50.508;10.436;2023-05-20T01:05:31;5.80;;;4.27;;
16963;SDS011;8598;50.508;10.436;2023-05-20T01:07:59;6.13;;;4.77;;
16963;SDS011;8598;50.508;10.436;2023-05-20T01:10:26;6.10;;;4.83;;
16963;SDS011;8598;50.508;10.436;2023-05-20T01:12:55;4.97;;;4.10;;
16963;SDS011;8598;50.508;10.436;2023-05-20T01:15:26;7.33;;;4.30;;
16963;SDS011;8598;50.508;10.436;2023-05-20T01:17:55;5.33;;;4.83;;
16963;SDS011;8598;50.508;10.436;2023-05-20T01:20:25;5.20;;;4.63;;
16963;SDS011;8598;50.508;10.436;2023-05-20T01:22:55;5.83;;;4.23;;
16963;SDS011;8598;50.508;10.436;2023-05-20T01:25:22;6.20;;;5.50;;
16963;SDS011;8598;50.508;10.436;2023-05-20T01:27:50;6.60;;;4.17;;
16963;SDS011;8598;50.508;10.436;2023-05-20T01:30:19;4.90;;;4.40;;
16963;SDS011;8598;50.508;10.436;2023-05-20T01:32:47;8.13;;;4.60;;
16963;SDS011;8598;50.508;10.436;2023-05-20T01:35:19;5.10;;;3.80;;
16963;SDS011;8598;50.508;10.436;2023-05-20T01:37:48;5.07;;;3.83;;
16963;SDS011;8598;50.508;10.436;2023-05-20T01:40:18;6.73;;;5.03;;
16963;SDS011;8598;50.508;10.436;2023-05-20T01:42:45;5.67;;;4.60;;
16963;SDS011;8598;50.508;10.436;2023-05-20T01:45:16;7.13;;;5.67;;
16963;SDS011;8598;50.508;10.436;2023-05-20T01:47:43;5.47;;;4.70;;
16963;SDS011;8598;50.508;10.436;2023-05-20T01:50:10;7.53;;;4.83;;
16963;SDS011;8598;50.508;10.436;2023-05-20T01:52:37;9.40;;;5.03;;
16963;SDS011;8598;50.508;10.436;2023-05-20T01:55:04;8.27;;;4.87;;
16963;SDS011;8598;50.508;10.436;2023-05-20T01:57:32;8.33;;;4.83;;
16963;SDS011;8598;50.508;10.436;2023-05-20T01:59:59;7.63;;;5.10;;
16963;SDS011;8598;50.508;10.436;2023-05-20T02:02:26;6.67;;;5.20;;
16963;SDS011;8598;50.508;10.436;2023-05-20T02:04:53;6.70;;;4.50;;
16963;SDS011;8598;50.508;10.436;2023-05-20T02:07:19;7.13;;;5.07;;
16963;SDS011;8598;50.508;10.436;2023-05-20T02:09:46;6.80;;;5.43;;
16963;SDS011;8598;50.508;10.436;2023-05-20T02:12:13;6.43;;;4.77;;
16963;SDS011;8598;50.508;10.436;2023-05-20T02:14:42;7.63;;;5.07;;
16963;SDS011;8598;50.508;10.436;2023-05-20T02:17:10;8.03;;;5.80;;
16963;SDS011;8598;50.508;10.436;2023-05-20T02:19:38;7.03;;;5.63;;
16963;SDS011;8598;50.508;10.436;2023-05-20T02:22:05;7.53;;;5.67;;
16963;SDS011;8598;50.508;10.436;2023-05-20T02:24:31;8.17;;;6.23;;
16963;SDS011;8598;50.508;10.436;2023-05-20T02:26:58;8.77;;;5.90;;
16963;SDS011;8598;50.508;10.436;2023-05-20T02:29:27;7.43;;;5.77;;
16963;SDS011;8598;50.508;10.436;2023-05-20T02:31:55;8.10;;;6.13;;
16963;SDS011;8598;50.508;10.436;2023-05-20T02:34:21;7.93;;;6.77;;
16963;SDS011;8598;50.508;10.436;2023-05-20T02:36:49;7.17;;;6.43;;
16963;SDS011;8598;50.508;10.436;2023-05-20T02:39:16;6.80;;;5.83;;
16963;SDS011;8598;50.508;10.436;2023-05-20T02:41:43;6.70;;;5.57;;
16963;SDS011;8598;50.508;10.436;2023-05-20T02:44:10;9.93;;;6.53;;
16963;SDS011;8598;50.508;10.436;2023-05-20T02:46:36;8.20;;;5.77;;
16963;SDS011;8598;50.508;10.436;2023-05-20T02:49:04;7.47;;;6.57;;
16963;SDS011;8598;50.508;10.436;2023-05-20T02:51:31;7.13;;;6.20;;
16963;SDS011;8598;50.508;10.436;2023-05-20T02:53:57;8.07;;;6.10;;
16963;SDS011;8598;50.508;10.436;2023-05-20T02:56:24;8.97;;;6.50;;
16963;SDS011;8598;50.508;10.436;2023-05-20T02:58:51;7.40;;;6.00;;
16963;SDS011;8598;50.508;10.436;2023-05-20T03:01:17;10.53;;;6.50;;
16963;SDS011;8598;50.508;10.436;2023-05-20T03:03:44;10.20;;;6.93;;
16963;SDS011;8598;50.508;10.436;2023-05-20T03:06:12;8.77;;;7.30;;
16963;SDS011;8598;50.508;10.436;2023-05-20T03:08:38;9.97;;;7.27;;
16963;SDS011;8598;50.508;10.436;2023-05-20T03:11:06;10.77;;;7.40;;
16963;SDS011;8598;50.508;10.436;2023-05-20T03:13:33;7.93;;;6.87;;
16963;SDS011;8598;50.508;10.436;2023-05-20T03:15:59;12.60;;;7.40;;
16963;SDS011;8598;50.508;10.436;2023-05-20T03:18:26;8.17;;;7.23;;
16963;SDS011;8598;50.508;10.436;2023-05-20T03:20:53;10.37;;;7.53;;
16963;SDS011;8598;50.508;10.436;2023-05-20T03:23:21;10.60;;;7.80;;
16963;SDS011;8598;50.508;10.436;2023-05-20T03:25:48;9.83;;;7.33;;
16963;SDS011;8598;50.508;10.436;2023-05-20T03:28:14;10.93;;;7.67;;
16963;SDS011;8598;50.508;10.436;2023-05-20T03:30:41;11.47;;;7.07;;
16963;SDS011;8598;50.508;10.436;2023-05-20T03:33:08;9.53;;;7.63;;
16963;SDS011;8598;50.508;10.436;2023-05-20T03:35:34;9.73;;;7.60;;
16963;SDS011;8598;50.508;10.436;2023-05-20T03:38:01;9.33;;;6.93;;
16963;SDS011;8598;50.508;10.436;2023-05-20T03:40:29;11.13;;;8.43;;
16963;SDS011;8598;50.508;10.436;2023-05-20T03:42:55;10.93;;;8.17;;
16963;SDS011;8598;50.508;10.436;2023-05-20T03:45:22;9.87;;;7.53;;
16963;SDS011;8598;50.508;10.436;2023-05-20T03:47:49;13.20;;;7.73;;
16963;SDS011;8598;50.508;10.436;2023-05-20T03:50:16;13.07;;;8.60;;
16963;SDS011;8598;50.508;10.436;2023-05-20T03:52:42;11.37;;;8.47;;
16963;SDS011;8598;50.508;10.436;2023-05-20T03:55:09;11.60;;;8.20;;
16963;SDS011;8598;50.508;10.436;2023-05-20T03:57:37;9.50;;;8.00;;
16963;SDS011;8598;50.508;10.436;2023-05-20T04:00:04;11.27;;;8.67;;
16963;SDS011;8598;50.508;10.436;2023-05-20T04:02:35;12.10;;;8.20;;
16963;SDS011;8598;50.508;10.436;2023-05-20T04:05:02;10.33;;;7.87;;
16963;SDS011;8598;50.508;10.436;2023-05-20T04:07:29;11.43;;;8.93;;
16963;SDS011;8598;50.508;10.436;2023-05-20T04:09:55;13.03;;;8.60;;
16963;SDS011;8598;50.508;10.436;2023-05-20T04:12:23;10.03;;;8.20;;
16963;SDS011;8598;50.508;10.436;2023-05-20T04:14:55;12.50;;;8.37;;
16963;SDS011;8598;50.508;10.436;2023-05-20T04:17:22;12.57;;;9.07;;
16963;SDS011;8598;50.508;10.436;2023-05-20T04:19:49;12.50;;;8.43;;
16963;SDS011;8598;50.508;10.436;2023-05-20T04:22:15;11.13;;;8.40;;
16963;SDS011;8598;50.508;10.436;2023-05-20T04:24:42;11.87;;;8.60;;
16963;SDS011;8598;50.508;10.436;2023-05-20T04:27:10;11.53;;;8.10;;
16963;SDS011;8598;50.508;10.436;2023-05-20T04:29:36;11.90;;;9.40;;
16963;SDS011;8598;50.508;10.436;2023-05-20T04:32:06;12.77;;;9.50;;
16963;SDS011;8598;50.508;10.436;2023-05-20T04:34:34;13.67;;;9.63;;
16963;SDS011;8598;50.508;10.436;2023-05-20T04:37:01;13.03;;;9.30;;
16963;SDS011;8598;50.508;10.436;2023-05-20T04:39:28;14.07;;;9.40;;
16963;SDS011;8598;50.508;10.436;2023-05-20T04:41:55;15.23;;;9.70;;
16963;SDS011;8598;50.508;10.436;2023-05-20T04:44:21;15.00;;;9.90;;
16963;SDS011;8598;50.508;10.436;2023-05-20T04:46:48;14.90;;;10.40;;
16963;SDS011;8598;50.508;10.436;2023-05-20T04:49:17;13.13;;;9.73;;
16963;SDS011;8598;50.508;10.436;2023-05-20T04:51:43;14.37;;;9.53;;
16963;SDS011;8598;50.508;10.436;2023-05-20T04:54:11;14.77;;;10.33;;
16963;SDS011;8598;50.508;10.436;2023-05-20T04:56:38;15.67;;;10.40;;
16963;SDS011;8598;50.508;10.436;2023-05-20T04:59:05;15.27;;;10.37;;
16963;SDS011;8598;50.508;10.436;2023-05-20T05:01:33;15.13;;;9.70;;
16963;SDS011;8598;50.508;10.436;2023-05-20T05:04:00;14.77;;;9.50;;
16963;SDS011;8598;50.508;10.436;2023-05-20T05:06:28;16.80;;;10.80;;
16963;SDS011;8598;50.508;10.436;2023-05-20T05:08:55;15.93;;;10.37;;
16963;SDS011;8598;50.508;10.436;2023-05-20T05:11:22;12.80;;;10.40;;
16963;SDS011;8598;50.508;10.436;2023-05-20T05:13:49;15.77;;;10.20;;
16963;SDS011;8598;50.508;10.436;2023-05-20T05:16:15;13.57;;;9.77;;
16963;SDS011;8598;50.508;10.436;2023-05-20T05:18:42;14.23;;;10.13;;
16963;SDS011;8598;50.508;10.436;2023-05-20T05:21:08;14.90;;;10.57;;
16963;SDS011;8598;50.508;10.436;2023-05-20T05:23:36;13.60;;;10.47;;
16963;SDS011;8598;50.508;10.436;2023-05-20T05:26:03;17.00;;;11.07;;
16963;SDS011;8598;50.508;10.436;2023-05-20T05:28:29;14.17;;;10.00;;
16963;SDS011;8598;50.508;10.436;2023-05-20T05:30:56;13.50;;;10.47;;
16963;SDS011;8598;50.508;10.436;2023-05-20T05:33:23;14.17;;;9.83;;
16963;SDS011;8598;50.508;10.436;2023-05-20T05:35:49;14.17;;;9.90;;
16963;SDS011;8598;50.508;10.436;2023-05-20T05:38:16;13.70;;;9.33;;
16963;SDS011;8598;50.508;10.436;2023-05-20T05:40:44;13.20;;;10.10;;
16963;SDS011;8598;50.508;10.436;2023-05-20T05:43:11;12.67;;;9.77;;
16963;SDS011;8598;50.508;10.436;2023-05-20T05:45:37;13.70;;;9.50;;
16963;SDS011;8598;50.508;10.436;2023-05-20T05:48:06;12.43;;;9.20;;
16963;SDS011;8598;50.508;10.436;2023-05-20T05:50:32;14.33;;;10.20;;
16963;SDS011;8598;50.508;10.436;2023-05-20T05:52:59;13.03;;;9.73;;
16963;SDS011;8598;50.508;10.436;2023-05-20T05:55:26;13.20;;;9.23;;
16963;SDS011;8598;50.508;10.436;2023-05-20T05:57:54;14.40;;;9.40;;
16963;SDS011;8598;50.508;10.436;2023-05-20T06:00:20;13.97;;;10.80;;
16963;SDS011;8598;50.508;10.436;2023-05-20T06:02:47;15.10;;;10.90;;
16963;SDS011;8598;50.508;10.436;2023-05-20T06:05:14;15.17;;;10.73;;
16963;SDS011;8598;50.508;10.436;2023-05-20T06:07:40;12.63;;;9.97;;
16963;SDS011;8598;50.508;10.436;2023-05-20T06:10:07;14.20;;;10.70;;
16963;SDS011;8598;50.508;10.436;2023-05-20T06:12:34;15.07;;;10.67;;
16963;SDS011;8598;50.508;10.436;2023-05-20T06:15:03;16.20;;;11.47;;
16963;SDS011;8598;50.508;10.436;2023-05-20T06:17:30;14.77;;;9.93;;
16963;SDS011;8598;50.508;10.436;2023-05-20T06:19:57;14.00;;;10.87;;
16963;SDS011;8598;50.508;10.436;2023-05-20T06:22:24;15.87;;;10.47;;
16963;SDS011;8598;50.508;10.436;2023-05-20T06:24:52;14.93;;;10.97;;
16963;SDS011;8598;50.508;10.436;2023-05-20T06:27:20;13.57;;;11.07;;
16963;SDS011;8598;50.508;10.436;2023-05-20T06:29:47;14.00;;;10.57;;
16963;SDS011;8598;50.508;10.436;2023-05-20T06:32:14;15.77;;;11.43;;
16963;SDS011;8598;50.508;10.436;2023-05-20T06:34:41;17.33;;;11.27;;
16963;SDS011;8598;50.508;10.436;2023-05-20T06:37:08;15.37;;;11.17;;
16963;SDS011;8598;50.508;10.436;2023-05-20T06:39:35;14.77;;;11.53;;
16963;SDS011;8598;50.508;10.436;2023-05-20T06:42:02;15.73;;;11.73;;
16963;SDS011;8598;50.508;10.436;2023-05-20T06:44:29;14.13;;;10.43;;
16963;SDS011;8598;50.508;10.436;2023-05-20T06:46:56;16.00;;;11.33;;
16963;SDS011;8598;50.508;10.436;2023-05-20T06:49:24;15.63;;;12.33;;
16963;SDS011;8598;50.508;10.436;2023-05-20T06:51:50;13.97;;;11.50;;
16963;SDS011;8598;50.508;10.436;2023-05-20T06:54:17;16.27;;;10.70;;
16963;SDS011;8598;50.508;10.436;2023-05-20T06:56:44;14.53;;;11.60;;
16963;SDS011;8598;50.508;10.436;2023-05-20T06:59:10;15.00;;;10.80;;
16963;SDS011;8598;50.508;10.436;2023-05-20T07:01:37;14.13;;;10.60;;
16963;SDS011;8598;50.508;10.436;2023-05-20T07:04:04;13.93;;;10.07;;
16963;SDS011;8598;50.508;10.436;2023-05-20T07:06:32;12.47;;;9.97;;
16963;SDS011;8598;50.508;10.436;2023-05-20T07:08:59;13.20;;;9.70;;
16963;SDS011;8598;50.508;10.436;2023-05-20T07:11:25;13.57;;;9.33;;
16963;SDS011;8598;50.508;10.436;2023-05-20T07:13:52;13.87;;;10.03;;
16963;SDS011;8598;50.508;10.436;2023-05-20T07:16:19;12.87;;;9.20;;
16963;SDS011;8598;50.508;10.436;2023-05-20T07:18:46;12.27;;;9.83;;
16963;SDS011;8598;50.508;10.436;2023-05-20T07:21:12;13.27;;;10.00;;
16963;SDS011;8598;50.508;10.436;2023-05-20T07:23:40;19.13;;;12.37;;
16963;SDS011;8598;50.508;10.436;2023-05-20T07:26:07;14.43;;;11.20;;
16963;SDS011;8598;50.508;10.436;2023-05-20T07:28:33;11.87;;;9.37;;
16963;SDS011;8598;50.508;10.436;2023-05-20T07:31:00;12.23;;;10.03;;
16963;SDS011;8598;50.508;10.436;2023-05-20T07:33:27;10.50;;;8.90;;
16963;SDS011;8598;50.508;10.436;2023-05-20T07:35:54;12.23;;;10.40;;
16963;SDS011;8598;50.508;10.436;2023-05-20T07:38:21;14.10;;;10.33;;
16963;SDS011;8598;50.508;10.436;2023-05-20T07:40:49;12.70;;;9.93;;
16963;SDS011;8598;50.508;10.436;2023-05-20T07:43:15;11.80;;;9.67;;
16963;SDS011;8598;50.508;10.436;2023-05-20T07:45:42;14.23;;;9.30;;
16963;SDS011;8598;50.508;10.436;2023-05-20T07:48:08;14.13;;;10.60;;
16963;SDS011;8598;50.508;10.436;2023-05-20T07:50:36;15.00;;;11.33;;
16963;SDS011;8598;50.508;10.436;2023-05-20T07:53:03;12.90;;;10.07;;
16963;SDS011;8598;50.508;10.436;2023-05-20T07:55:32;13.10;;;10.03;;
16963;SDS011;8598;50.508;10.436;2023-05-20T07:58:00;12.57;;;10.13;;
16963;SDS011;8598;50.508;10.436;2023-05-20T08:00:27;17.07;;;10.17;;
16963;SDS011;8598;50.508;10.436;2023-05-20T08:02:54;11.57;;;9.27;;
16963;SDS011;8598;50.508;10.436;2023-05-20T08:05:20;11.13;;;8.60;;
16963;SDS011;8598;50.508;10.436;2023-05-20T08:07:48;11.93;;;8.23;;
16963;SDS011;8598;50.508;10.436;2023-05-20T08:10:14;11.60;;;8.47;;
16963;SDS011;8598;50.508;10.436;2023-05-20T08:12:41;10.43;;;9.43;;
16963;SDS011;8598;50.508;10.436;2023-05-20T08:15:09;9.90;;;7.97;;
16963;SDS011;8598;50.508;10.436;2023-05-20T08:17:36;13.20;;;9.27;;
16963;SDS011;8598;50.508;10.436;2023-05-20T08:20:03;10.03;;;8.73;;
16963;SDS011;8598;50.508;10.436;2023-05-20T08:22:32;11.80;;;9.67;;
16963;SDS011;8598;50.508;10.436;2023-05-20T08:25:00;12.33;;;9.97;;
16963;SDS011;8598;50.508;10.436;2023-05-20T08:27:27;13.03;;;9.97;;
16963;SDS011;8598;50.508;10.436;2023-05-20T08:29:54;10.83;;;9.57;;
16963;SDS011;8598;50.508;10.436;2023-05-20T08:32:23;11.90;;;9.13;;
16963;SDS011;8598;50.508;10.436;2023-05-20T08:34:50;12.17;;;10.43;;
16963;SDS011;8598;50.508;10.436;2023-05-20T08:37:17;13.43;;;10.10;;
16963;SDS011;8598;50.508;10.436;2023-05-20T08:39:44;13.17;;;9.13;;
16963;SDS011;8598;50.508;10.436;2023-05-20T08:42:13;12.27;;;10.27;;
16963;SDS011;8598;50.508;10.436;2023-05-20T08:44:40;14.20;;;9.70;;
16963;SDS011;8598;50.508;10.436;2023-05-20T08:47:09;12.07;;;8.97;;
16963;SDS011;8598;50.508;10.436;2023-05-20T08:49:38;13.40;;;9.80;;
16963;SDS011;8598;50.508;10.436;2023-05-20T08:52:05;12.47;;;9.80;;
16963;SDS011;8598;50.508;10.436;2023-05-20T08:54:40;11.20;;;9.47;;
16963;SDS011;8598;50.508;10.436;2023-05-20T08:57:10;12.00;;;10.43;;
16963;SDS011;8598;50.508;10.436;2023-05-20T08:59:37;11.73;;;9.27;;
16963;SDS011;8598;50.508;10.436;2023-05-20T09:02:05;11.87;;;9.17;;
16963;SDS011;8598;50.508;10.436;2023-05-20T09:04:33;12.57;;;9.23;;
16963;SDS011;8598;50.508;10.436;2023-05-20T09:07:01;11.97;;;9.20;;
16963;SDS011;8598;50.508;10.436;2023-05-20T09:09:28;11.80;;;9.60;;
16963;SDS011;8598;50.508;10.436;2023-05-20T09:11:55;12.77;;;9.70;;
16963;SDS011;8598;50.508;10.436;2023-05-20T09:14:22;10.33;;;8.97;;
16963;SDS011;8598;50.508;10.436;2023-05-20T09:16:51;11.67;;;8.40;;
16963;SDS011;8598;50.508;10.436;2023-05-20T09:19:19;10.83;;;9.07;;
16963;SDS011;8598;50.508;10.436;2023-05-20T09:21:46;9.80;;;7.77;;
16963;SDS011;8598;50.508;10.436;2023-05-20T09:24:14;10.63;;;9.20;;
16963;SDS011;8598;50.508;10.436;2023-05-20T09:26:44;11.00;;;9.70;;
16963;SDS011;8598;50.508;10.436;2023-05-20T09:29:11;11.47;;;8.93;;
16963;SDS011;8598;50.508;10.436;2023-05-20T09:31:37;10.30;;;9.27;;
16963;SDS011;8598;50.508;10.436;2023-05-20T09:34:05;11.43;;;8.43;;
16963;SDS011;8598;50.508;10.436;2023-05-20T09:36:32;10.77;;;8.57;;
16963;SDS011;8598;50.508;10.436;2023-05-20T09:39:00;12.83;;;9.97;;
16963;SDS011;8598;50.508;10.436;2023-05-20T09:41:32;13.57;;;8.63;;
16963;SDS011;8598;50.508;10.436;2023-05-20T09:44:01;11.27;;;8.93;;
16963;SDS011;8598;50.508;10.436;2023-05-20T09:46:28;13.90;;;9.27;;
16963;SDS011;8598;50.508;10.436;2023-05-20T09:48:56;11.73;;;8.67;;
16963;SDS011;8598;50.508;10.436;2023-05-20T09:51:24;10.47;;;8.23;;
16963;SDS011;8598;50.508;10.436;2023-05-20T09:53:53;12.37;;;8.27;;
16963;SDS011;8598;50.508;10.436;2023-05-20T09:56:21;11.17;;;7.50;;
16963;SDS011;8598;50.508;10.436;2023-05-20T09:58:51;11.33;;;8.13;;
16963;SDS011;8598;50.508;10.436;2023-05-20T10:01:22;9.47;;;7.63;;
16963;SDS011;8598;50.508;10.436;2023-05-20T10:03:49;10.27;;;7.60;;
16963;SDS011;8598;50.508;10.436;2023-05-20T10:06:21;13.50;;;8.07;;
16963;SDS011;8598;50.508;10.436;2023-05-20T10:09:02;9.57;;;7.70;;
16963;SDS011;8598;50.508;10.436;2023-05-20T10:11:40;9.77;;;7.83;;
16963;SDS011;8598;50.508;10.436;2023-05-20T10:14:25;14.57;;;8.60;;
16963;SDS011;8598;50.508;10.436;2023-05-20T10:17:02;9.27;;;7.33;;
16963;SDS011;8598;50.508;10.436;2023-05-20T10:19:35;10.13;;;7.20;;
16963;SDS011;8598;50.508;10.436;2023-05-20T10:22:02;10.00;;;7.53;;
16963;SDS011;8598;50.508;10.436;2023-05-20T10:24:31;11.17;;;8.93;;
16963;SDS011;8598;50.508;10.436;2023-05-20T10:27:00;8.40;;;7.50;;
16963;SDS011;8598;50.508;10.436;2023-05-20T10:29:29;8.87;;;7.27;;
16963;SDS011;8598;50.508;10.436;2023-05-20T10:32:07;9.93;;;7.53;;
16963;SDS011;8598;50.508;10.436;2023-05-20T10:34:43;9.53;;;6.90;;
16963;SDS011;8598;50.508;10.436;2023-05-20T10:37:19;10.07;;;7.40;;
16963;SDS011;8598;50.508;10.436;2023-05-20T10:39:48;10.20;;;7.97;;
16963;SDS011;8598;50.508;10.436;2023-05-20T10:42:15;11.47;;;8.43;;
16963;SDS011;8598;50.508;10.436;2023-05-20T10:44:53;11.53;;;7.33;;
16963;SDS011;8598;50.508;10.436;2023-05-20T10:47:20;9.57;;;7.90;;
16963;SDS011;8598;50.508;10.436;2023-05-20T10:49:46;10.23;;;7.90;;
16963;SDS011;8598;50.508;10.436;2023-05-20T10:52:13;9.50;;;8.03;;
16963;SDS011;8598;50.508;10.436;2023-05-20T10:54:42;12.23;;;8.63;;
16963;SDS011;8598;50.508;10.436;2023-05-20T10:57:10;13.03;;;8.50;;
16963;SDS011;8598;50.508;10.436;2023-05-20T10:59:37;9.73;;;8.17;;
16963;SDS011;8598;50.508;10.436;2023-05-20T11:02:05;9.50;;;7.93;;
16963;SDS011;8598;50.508;10.436;2023-05-20T11:04:32;9.73;;;7.80;;
16963;SDS011;8598;50.508;10.436;2023-05-20T11:07:00;13.60;;;8.30;;
16963;SDS011;8598;50.508;10.436;2023-05-20T11:09:27;11.87;;;8.47;;
16963;SDS011;8598;50.508;10.436;2023-05-20T11:11:55;12.33;;;8.50;;
16963;SDS011;8598;50.508;10.436;2023-05-20T11:14:21;10.90;;;9.57;;
16963;SDS011;8598;50.508;10.436;2023-05-20T11:16:51;12.77;;;8.83;;
16963;SDS011;8598;50.508;10.436;2023-05-20T11:19:20;12.57;;;8.70;;
16963;SDS011;8598;50.508;10.436;2023-05-20T11:21:47;10.70;;;8.83;;
16963;SDS011;8598;50.508;10.436;2023-05-20T11:24:13;10.20;;;8.07;;
16963;SDS011;8598;50.508;10.436;2023-05-20T11:26:47;11.77;;;8.47;;
16963;SDS011;8598;50.508;10.436;2023-05-20T11:29:13;9.43;;;7.87;;
16963;SDS011;8598;50.508;10.436;2023-05-20T11:31:40;9.83;;;8.00;;
16963;SDS011;8598;50.508;10.436;2023-05-20T11:34:07;12.03;;;8.77;;
16963;SDS011;8598;50.508;10.436;2023-05-20T11:36:40;11.13;;;8.77;;
16963;SDS011;8598;50.508;10.436;2023-05-20T11:39:08;11.07;;;8.80;;
16963;SDS011;8598;50.508;10.436;2023-05-20T11:41:35;13.00;;;9.17;;
16963;SDS011;8598;50.508;10.436;2023-05-20T11:44:03;10.47;;;8.50;;
16963;SDS011;8598;50.508;10.436;2023-05-20T11:46:30;11.17;;;7.70;;
16963;SDS011;8598;50.508;10.436;2023-05-20T11:48:56;11.70;;;8.00;;
16963;SDS011;8598;50.508;10.436;2023-05-20T11:51:23;12.43;;;8.67;;
16963;SDS011;8598;50.508;10.436;2023-05-20T11:53:53;9.70;;;8.37;;
16963;SDS011;8598;50.508;10.436;2023-05-20T11:56:24;10.30;;;8.57;;
16963;SDS011;8598;50.508;10.436;2023-05-20T11:58:53;11.50;;;9.47;;
16963;SDS011;8598;50.508;10.436;2023-05-20T12:01:22;12.47;;;8.83;;
16963;SDS011;8598;50.508;10.436;2023-05-20T12:03:49;10.77;;;8.47;;
16963;SDS011;8598;50.508;10.436;2023-05-20T12:06:15;10.73;;;8.20;;
16963;SDS011;8598;50.508;10.436;2023-05-20T12:08:42;13.13;;;8.67;;
16963;SDS011;8598;50.508;10.436;2023-05-20T12:11:10;10.77;;;9.27;;
16963;SDS011;8598;50.508;10.436;2023-05-20T12:13:37;10.93;;;7.90;;
16963;SDS011;8598;50.508;10.436;2023-05-20T12:16:04;13.40;;;8.00;;
16963;SDS011;8598;50.508;10.436;2023-05-20T12:18:30;11.97;;;8.07;;
16963;SDS011;8598;50.508;10.436;2023-05-20T12:20:57;12.03;;;8.73;;
16963;SDS011;8598;50.508;10.436;2023-05-20T12:23:24;10.93;;;8.37;;
16963;SDS011;8598;50.508;10.436;2023-05-20T12:25:53;10.70;;;8.10;;
16963;SDS011;8598;50.508;10.436;2023-05-20T12:28:21;11.50;;;8.90;;
16963;SDS011;8598;50.508;10.436;2023-05-20T12:30:48;12.33;;;8.90;;
16963;SDS011;8598;50.508;10.436;2023-05-20T12:33:14;11.27;;;9.17;;
16963;SDS011;8598;50.508;10.436;2023-05-20T12:35:41;10.20;;;8.90;;
16963;SDS011;8598;50.508;10.436;2023-05-20T12:38:08;13.20;;;8.67;;
16963;SDS011;8598;50.508;10.436;2023-05-20T12:40:35;13.50;;;8.87;;
16963;SDS011;8598;50.508;10.436;2023-05-20T12:43:02;10.83;;;7.87;;
16963;SDS011;8598;50.508;10.436;2023-05-20T12:45:31;10.80;;;8.10;;
16963;SDS011;8598;50.508;10.436;2023-05-20T12:47:58;11.10;;;8.33;;
16963;SDS011;8598;50.508;10.436;2023-05-20T12:50:25;9.17;;;6.90;;
16963;SDS011;8598;50.508;10.436;2023-05-20T12:52:53;12.30;;;8.20;;
16963;SDS011;8598;50.508;10.436;2023-05-20T12:55:19;10.03;;;7.73;;
16963;SDS011;8598;50.508;10.436;2023-05-20T12:57:46;10.13;;;7.67;;
16963;SDS011;8598;50.508;10.436;2023-05-20T13:00:13;9.50;;;7.33;;
16963;SDS011;8598;50.508;10.436;2023-05-20T13:02:41;9.17;;;7.93;;
16963;SDS011;8598;50.508;10.436;2023-05-20T13:05:08;10.53;;;7.30;;
16963;SDS011;8598;50.508;10.436;2023-05-20T13:07:35;10.77;;;8.03;;
16963;SDS011;8598;50.508;10.436;2023-05-20T13:10:03;9.90;;;8.17;;
16963;SDS011;8598;50.508;10.436;2023-05-20T13:12:30;11.57;;;8.37;;
16963;SDS011;8598;50.508;10.436;2023-05-20T13:14:56;11.63;;;8.70;;
16963;SDS011;8598;50.508;10.436;2023-05-20T13:17:23;12.07;;;9.17;;
16963;SDS011;8598;50.508;10.436;2023-05-20T13:19:52;11.97;;;8.03;;
16963;SDS011;8598;50.508;10.436;2023-05-20T13:22:18;12.60;;;8.43;;
16963;SDS011;8598;50.508;10.436;2023-05-20T13:24:45;12.70;;;8.43;;
16963;SDS011;8598;50.508;10.436;2023-05-20T13:27:12;11.37;;;9.50;;
16963;SDS011;8598;50.508;10.436;2023-05-20T13:29:39;10.80;;;8.87;;
16963;SDS011;8598;50.508;10.436;2023-05-20T13:32:06;10.00;;;8.87;;
16963;SDS011;8598;50.508;10.436;2023-05-20T13:34:32;11.40;;;8.87;;
16963;SDS011;8598;50.508;10.436;2023-05-20T13:37:00;11.63;;;9.33;;
16963;SDS011;8598;50.508;10.436;2023-05-20T13:39:27;11.33;;;9.07;;
16963;SDS011;8598;50.508;10.436;2023-05-20T13:41:54;11.00;;;8.23;;
16963;SDS011;8598;50.508;10.436;2023-05-20T13:44:21;13.77;;;8.77;;
16963;SDS011;8598;50.508;10.436;2023-05-20T13:46:47;15.40;;;9.13;;
16963;SDS011;8598;50.508;10.436;2023-05-20T13:49:14;11.90;;;8.37;;
16963;SDS011;8598;50.508;10.436;2023-05-20T13:51:41;11.00;;;7.97;;
16963;SDS011;8598;50.508;10.436;2023-05-20T13:54:08;10.13;;;8.77;;
16963;SDS011;8598;50.508;10.436;2023-05-20T13:56:35;12.00;;;8.40;;
16963;SDS011;8598;50.508;10.436;2023-05-20T13:59:02;13.00;;;9.37;;
16963;SDS011;8598;50.508;10.436;2023-05-20T14:01:29;12.27;;;9.00;;
16963;SDS011;8598;50.508;10.436;2023-05-20T14:03:57;12.60;;;8.20;;
16963;SDS011;8598;50.508;10.436;2023-05-20T14:06:23;12.50;;;8.40;;
16963;SDS011;8598;50.508;10.436;2023-05-20T14:08:52;13.40;;;10.37;;
16963;SDS011;8598;50.508;10.436;2023-05-20T14:11:21;11.00;;;9.53;;
16963;SDS011;8598;50.508;10.436;2023-05-20T14:13:47;12.07;;;9.30;;
16963;SDS011;8598;50.508;10.436;2023-05-20T14:16:15;15.03;;;9.30;;
16963;SDS011;8598;50.508;10.436;2023-05-20T14:18:41;14.93;;;10.27;;
16963;SDS011;8598;50.508;10.436;2023-05-20T14:21:08;13.63;;;9.10;;
16963;SDS011;8598;50.508;10.436;2023-05-20T14:23:36;11.27;;;8.70;;
16963;SDS011;8598;50.508;10.436;2023-05-20T14:26:02;12.57;;;9.47;;
16963;SDS011;8598;50.508;10.436;2023-05-20T14:28:32;11.43;;;9.60;;
16963;SDS011;8598;50.508;10.436;2023-05-20T14:30:58;12.70;;;9.47;;
16963;SDS011;8598;50.508;10.436;2023-05-20T14:33:25;12.13;;;9.70;;
16963;SDS011;8598;50.508;10.436;2023-05-20T14:35:51;12.83;;;9.23;;
16963;SDS011;8598;50.508;10.436;2023-05-20T14:38:18;14.00;;;9.23;;